sensor_id;sensor_type;location;lat;lon;timestamp;pressure;altitude;pressure_sealevel;temperature;humidity
41706;BME280;27385;51.096;17.190;2023-08-06T00:01:06;99198.03;;;15.54;100.00
41706;BME280;27385;51.096;17.190;2023-08-06T00:03:57;99193.25;;;15.53;100.00
41706;BME280;27385;51.096;17.190;2023-08-06T00:06:31;99180.79;;;15.55;100.00
41706;BME280;27385;51.096;17.190;2023-08-06T00:09:02;99175.29;;;15.56;100.00
41706;BME280;27385;51.096;17.190;2023-08-06T00:11:33;99174.98;;;15.57;100.00
41706;BME280;27385;51.096;17.190;2023-08-06T00:14:03;99177.46;;;15.58;100.00
41706;BME280;27385;51.096;17.190;2023-08-06T00:16:34;99177.55;;;15.59;100.00
41706;BME280;27385;51.096;17.190;2023-08-06T00:19:05;99171.21;;;15.59;100.00
41706;BME280;27385;51.096;17.190;2023-08-06T00:21:35;99169.57;;;15.59;100.00
41706;BME280;27385;51.096;17.190;2023-08-06T00:24:06;99165.94;;;15.59;100.00
41706;BME280;27385;51.096;17.190;2023-08-06T00:26:37;99151.20;;;15.60;100.00
41706;BME280;27385;51.096;17.190;2023-08-06T00:29:08;99153.90;;;15.60;100.00
41706;BME280;27385;51.096;17.190;2023-08-06T00:31:38;99149.20;;;15.59;100.00
41706;BME280;27385;51.096;17.190;2023-08-06T00:34:09;99142.50;;;15.60;100.00
41706;BME280;27385;51.096;17.190;2023-08-06T00:36:40;99141.22;;;15.60;100.00
41706;BME280;27385;51.096;17.190;2023-08-06T00:39:10;99141.07;;;15.59;100.00
41706;BME280;27385;51.096;17.190;2023-08-06T00:41:41;99138.10;;;15.62;100.00
41706;BME280;27385;51.096;17.190;2023-08-06T00:44:12;99132.10;;;15.64;100.00
41706;BME280;27385;51.096;17.190;2023-08-06T00:46:44;99120.02;;;15.64;100.00
41706;BME280;27385;51.096;17.190;2023-08-06T00:49:15;99108.92;;;15.64;100.00
41706;BME280;27385;51.096;17.190;2023-08-06T00:51:47;99097.97;;;15.62;100.00
41706;BME280;27385;51.096;17.190;2023-08-06T00:54:18;99085.23;;;15.61;100.00
41706;BME280;27385;51.096;17.190;2023-08-06T00:56:49;99081.46;;;15.63;100.00
41706;BME280;27385;51.096;17.190;2023-08-06T00:59:20;99069.23;;;15.61;100.00
41706;BME280;27385;51.096;17.190;2023-08-06T01:01:52;99062.31;;;15.58;100.00
41706;BME280;27385;51.096;17.190;2023-08-06T01:04:23;99054.81;;;15.58;100.00
41706;BME280;27385;51.096;17.190;2023-08-06T01:07:15;99050.58;;;15.58;100.00
41706;BME280;27385;51.096;17.190;2023-08-06T01:09:57;99048.35;;;15.58;100.00
41706;BME280;27385;51.096;17.190;2023-08-06T01:12:38;99038.54;;;15.58;100.00
41706;BME280;27385;51.096;17.190;2023-08-06T01:15:17;99030.55;;;15.59;100.00
41706;BME280;27385;51.096;17.190;2023-08-06T01:17:50;99021.42;;;15.57;100.00
41706;BME280;27385;51.096;17.190;2023-08-06T01:20:21;99019.94;;;15.55;100.00
41706;BME280;27385;51.096;17.190;2023-08-06T01:22:52;99011.55;;;15.55;100.00
41706;BME280;27385;51.096;17.190;2023-08-06T01:25:29;99012.67;;;15.53;100.00
41706;BME280;27385;51.096;17.190;2023-08-06T01:28:06;99007.85;;;15.52;100.00
41706;BME280;27385;51.096;17.190;2023-08-06T01:30:42;99000.77;;;15.52;100.00
41706;BME280;27385;51.096;17.190;2023-08-06T01:33:16;98998.33;;;15.52;100.00
41706;BME280;27385;51.096;17.190;2023-08-06T01:35:51;98996.81;;;15.53;100.00
41706;BME280;27385;51.096;17.190;2023-08-06T01:38:23;98980.25;;;15.55;100.00
41706;BME280;27385;51.096;17.190;2023-08-06T01:40:57;98958.02;;;15.55;100.00
41706;BME280;27385;51.096;17.190;2023-08-06T01:43:28;98972.02;;;15.53;100.00
41706;BME280;27385;51.096;17.190;2023-08-06T01:45:59;98963.78;;;15.48;100.00
41706;BME280;27385;51.096;17.190;2023-08-06T01:48:30;98957.14;;;15.46;100.00
41706;BME280;27385;51.096;17.190;2023-08-06T01:51:00;98951.02;;;15.41;100.00
41706;BME280;27385;51.096;17.190;2023-08-06T01:53:31;98948.80;;;15.37;100.00
41706;BME280;27385;51.096;17.190;2023-08-06T01:56:02;98953.99;;;15.33;100.00
41706;BME280;27385;51.096;17.190;2023-08-06T01:58:33;98953.98;;;15.31;100.00
41706;BME280;27385;51.096;17.190;2023-08-06T02:01:03;98946.55;;;15.29;100.00
41706;BME280;27385;51.096;17.190;2023-08-06T02:03:34;98935.48;;;15.25;100.00
41706;BME280;27385;51.096;17.190;2023-08-06T02:06:06;98933.59;;;15.21;100.00
41706;BME280;27385;51.096;17.190;2023-08-06T02:08:36;98928.55;;;15.18;100.00
41706;BME280;27385;51.096;17.190;2023-08-06T02:11:08;98925.08;;;15.17;100.00
41706;BME280;27385;51.096;17.190;2023-08-06T02:13:38;98919.04;;;15.18;100.00
41706;BME280;27385;51.096;17.190;2023-08-06T02:16:10;98916.90;;;15.17;100.00
41706;BME280;27385;51.096;17.190;2023-08-06T02:18:40;98914.44;;;15.15;100.00
41706;BME280;27385;51.096;17.190;2023-08-06T02:21:11;98909.30;;;15.13;100.00
41706;BME280;27385;51.096;17.190;2023-08-06T02:23:42;98903.11;;;15.12;100.00
41706;BME280;27385;51.096;17.190;2023-08-06T02:26:12;98895.59;;;15.10;100.00
41706;BME280;27385;51.096;17.190;2023-08-06T02:28:43;98889.42;;;15.09;100.00
41706;BME280;27385;51.096;17.190;2023-08-06T02:31:13;98868.39;;;15.05;100.00
41706;BME280;27385;51.096;17.190;2023-08-06T02:33:44;98852.44;;;15.02;100.00
41706;BME280;27385;51.096;17.190;2023-08-06T02:36:15;98843.55;;;14.96;100.00
41706;BME280;27385;51.096;17.190;2023-08-06T02:38:46;98840.44;;;14.91;100.00
41706;BME280;27385;51.096;17.190;2023-08-06T02:41:17;98835.36;;;14.87;100.00
41706;BME280;27385;51.096;17.190;2023-08-06T02:43:47;98829.58;;;14.82;100.00
41706;BME280;27385;51.096;17.190;2023-08-06T02:46:18;98829.04;;;14.79;100.00
41706;BME280;27385;51.096;17.190;2023-08-06T02:48:49;98832.17;;;14.75;100.00
41706;BME280;27385;51.096;17.190;2023-08-06T02:51:20;98830.34;;;14.73;100.00
41706;BME280;27385;51.096;17.190;2023-08-06T02:53:50;98833.66;;;14.70;100.00
41706;BME280;27385;51.096;17.190;2023-08-06T02:56:21;98838.90;;;14.69;100.00
41706;BME280;27385;51.096;17.190;2023-08-06T02:58:52;98838.23;;;14.66;100.00
41706;BME280;27385;51.096;17.190;2023-08-06T03:01:23;98827.86;;;14.64;100.00
41706;BME280;27385;51.096;17.190;2023-08-06T03:03:56;98820.64;;;14.62;100.00
41706;BME280;27385;51.096;17.190;2023-08-06T03:06:27;98812.96;;;14.61;100.00
41706;BME280;27385;51.096;17.190;2023-08-06T03:08:58;98817.56;;;14.61;100.00
41706;BME280;27385;51.096;17.190;2023-08-06T03:11:28;98821.80;;;14.61;100.00
41706;BME280;27385;51.096;17.190;2023-08-06T03:13:59;98821.38;;;14.61;100.00
41706;BME280;27385;51.096;17.190;2023-08-06T03:16:30;98824.64;;;14.61;100.00
41706;BME280;27385;51.096;17.190;2023-08-06T03:19:01;98835.56;;;14.62;100.00
41706;BME280;27385;51.096;17.190;2023-08-06T03:21:32;98843.25;;;14.63;100.00
41706;BME280;27385;51.096;17.190;2023-08-06T03:24:02;98841.71;;;14.63;100.00
41706;BME280;27385;51.096;17.190;2023-08-06T03:26:33;98833.92;;;14.63;100.00
41706;BME280;27385;51.096;17.190;2023-08-06T03:29:04;98827.79;;;14.61;100.00
41706;BME280;27385;51.096;17.190;2023-08-06T03:31:35;98824.91;;;14.58;100.00
41706;BME280;27385;51.096;17.190;2023-08-06T03:34:06;98816.68;;;14.56;100.00
41706;BME280;27385;51.096;17.190;2023-08-06T03:36:36;98809.38;;;14.53;100.00
41706;BME280;27385;51.096;17.190;2023-08-06T03:39:07;98810.05;;;14.51;100.00
41706;BME280;27385;51.096;17.190;2023-08-06T03:41:38;98804.88;;;14.49;100.00
41706;BME280;27385;51.096;17.190;2023-08-06T03:44:08;98806.86;;;14.49;100.00
41706;BME280;27385;51.096;17.190;2023-08-06T03:46:39;98802.15;;;14.48;100.00
41706;BME280;27385;51.096;17.190;2023-08-06T03:49:10;98803.59;;;14.47;100.00
41706;BME280;27385;51.096;17.190;2023-08-06T03:51:41;98810.61;;;14.45;100.00
41706;BME280;27385;51.096;17.190;2023-08-06T03:54:11;98808.56;;;14.43;100.00
41706;BME280;27385;51.096;17.190;2023-08-06T03:56:42;98809.14;;;14.42;100.00
41706;BME280;27385;51.096;17.190;2023-08-06T03:59:13;98806.83;;;14.40;100.00
41706;BME280;27385;51.096;17.190;2023-08-06T04:01:43;98808.69;;;14.39;100.00
41706;BME280;27385;51.096;17.190;2023-08-06T04:04:14;98808.77;;;14.38;100.00
41706;BME280;27385;51.096;17.190;2023-08-06T04:06:45;98817.83;;;14.37;100.00
41706;BME280;27385;51.096;17.190;2023-08-06T04:09:15;98817.95;;;14.35;100.00
41706;BME280;27385;51.096;17.190;2023-08-06T04:11:46;98823.12;;;14.35;100.00
41706;BME280;27385;51.096;17.190;2023-08-06T04:14:17;98822.66;;;14.35;100.00
41706;BME280;27385;51.096;17.190;2023-08-06T04:16:48;98826.30;;;14.33;100.00
41706;BME280;27385;51.096;17.190;2023-08-06T04:19:19;98812.95;;;14.32;100.00
41706;BME280;27385;51.096;17.190;2023-08-06T04:21:49;98816.02;;;14.30;100.00
41706;BME280;27385;51.096;17.190;2023-08-06T04:24:20;98819.23;;;14.28;100.00
41706;BME280;27385;51.096;17.190;2023-08-06T04:26:51;98811.56;;;14.26;100.00
41706;BME280;27385;51.096;17.190;2023-08-06T04:29:22;98809.35;;;14.25;100.00
41706;BME280;27385;51.096;17.190;2023-08-06T04:31:53;98811.20;;;14.24;100.00
41706;BME280;27385;51.096;17.190;2023-08-06T04:34:24;98808.21;;;14.22;100.00
41706;BME280;27385;51.096;17.190;2023-08-06T04:36:55;98801.51;;;14.21;100.00
41706;BME280;27385;51.096;17.190;2023-08-06T04:39:25;98803.25;;;14.21;100.00
41706;BME280;27385;51.096;17.190;2023-08-06T04:41:56;98789.71;;;14.19;100.00
41706;BME280;27385;51.096;17.190;2023-08-06T04:44:27;98784.67;;;14.18;100.00
41706;BME280;27385;51.096;17.190;2023-08-06T04:46:58;98779.04;;;14.16;100.00
41706;BME280;27385;51.096;17.190;2023-08-06T04:49:29;98768.96;;;14.15;100.00
41706;BME280;27385;51.096;17.190;2023-08-06T04:52:00;98770.66;;;14.14;100.00
41706;BME280;27385;51.096;17.190;2023-08-06T04:54:31;98772.73;;;14.12;100.00
41706;BME280;27385;51.096;17.190;2023-08-06T04:57:02;98774.12;;;14.12;100.00
41706;BME280;27385;51.096;17.190;2023-08-06T04:59:32;98780.19;;;14.12;100.00
41706;BME280;27385;51.096;17.190;2023-08-06T05:02:04;98776.00;;;14.13;100.00
41706;BME280;27385;51.096;17.190;2023-08-06T05:04:35;98777.79;;;14.12;100.00
41706;BME280;27385;51.096;17.190;2023-08-06T05:07:06;98776.36;;;14.12;100.00
41706;BME280;27385;51.096;17.190;2023-08-06T05:09:37;98774.52;;;14.12;100.00
41706;BME280;27385;51.096;17.190;2023-08-06T05:12:09;98765.57;;;14.11;100.00
41706;BME280;27385;51.096;17.190;2023-08-06T05:14:41;98753.38;;;14.11;100.00
41706;BME280;27385;51.096;17.190;2023-08-06T05:17:11;98755.18;;;14.09;100.00
41706;BME280;27385;51.096;17.190;2023-08-06T05:19:42;98753.57;;;14.09;100.00
41706;BME280;27385;51.096;17.190;2023-08-06T05:22:13;98759.27;;;14.10;100.00
41706;BME280;27385;51.096;17.190;2023-08-06T05:24:44;98758.66;;;14.09;100.00
41706;BME280;27385;51.096;17.190;2023-08-06T05:27:15;98749.70;;;14.08;100.00
41706;BME280;27385;51.096;17.190;2023-08-06T05:29:49;98751.42;;;14.08;100.00
41706;BME280;27385;51.096;17.190;2023-08-06T05:32:21;98743.81;;;14.07;100.00
41706;BME280;27385;51.096;17.190;2023-08-06T05:34:51;98749.59;;;14.06;100.00
41706;BME280;27385;51.096;17.190;2023-08-06T05:37:23;98755.46;;;14.06;100.00
41706;BME280;27385;51.096;17.190;2023-08-06T05:39:54;98745.73;;;14.05;100.00
41706;BME280;27385;51.096;17.190;2023-08-06T05:42:25;98751.50;;;14.05;100.00
41706;BME280;27385;51.096;17.190;2023-08-06T05:44:55;98751.53;;;14.06;100.00
41706;BME280;27385;51.096;17.190;2023-08-06T05:47:26;98745.27;;;14.05;100.00
41706;BME280;27385;51.096;17.190;2023-08-06T05:49:57;98728.92;;;14.04;100.00
41706;BME280;27385;51.096;17.190;2023-08-06T05:52:28;98711.89;;;14.03;100.00
41706;BME280;27385;51.096;17.190;2023-08-06T05:54:58;98712.40;;;14.03;100.00
41706;BME280;27385;51.096;17.190;2023-08-06T05:57:29;98732.80;;;14.04;100.00
41706;BME280;27385;51.096;17.190;2023-08-06T06:00:00;98731.31;;;14.04;100.00
41706;BME280;27385;51.096;17.190;2023-08-06T06:02:32;98735.99;;;14.05;100.00
41706;BME280;27385;51.096;17.190;2023-08-06T06:05:03;98741.77;;;14.05;100.00
41706;BME280;27385;51.096;17.190;2023-08-06T06:07:33;98741.69;;;14.05;100.00
41706;BME280;27385;51.096;17.190;2023-08-06T06:10:05;98734.70;;;14.06;100.00
41706;BME280;27385;51.096;17.190;2023-08-06T06:12:37;98737.85;;;14.06;100.00
41706;BME280;27385;51.096;17.190;2023-08-06T06:15:10;98752.48;;;14.06;100.00
41706;BME280;27385;51.096;17.190;2023-08-06T06:17:41;98770.18;;;14.07;100.00
41706;BME280;27385;51.096;17.190;2023-08-06T06:20:12;98777.95;;;14.06;100.00
41706;BME280;27385;51.096;17.190;2023-08-06T06:22:43;98774.40;;;14.06;100.00
41706;BME280;27385;51.096;17.190;2023-08-06T06:25:13;98763.21;;;14.06;100.00
41706;BME280;27385;51.096;17.190;2023-08-06T06:27:44;98749.52;;;14.05;100.00
41706;BME280;27385;51.096;17.190;2023-08-06T06:30:15;98740.80;;;14.04;100.00
41706;BME280;27385;51.096;17.190;2023-08-06T06:32:46;98735.73;;;14.02;100.00
41706;BME280;27385;51.096;17.190;2023-08-06T06:35:17;98728.57;;;14.01;100.00
41706;BME280;27385;51.096;17.190;2023-08-06T06:37:47;98728.52;;;14.00;100.00
41706;BME280;27385;51.096;17.190;2023-08-06T06:40:18;98735.58;;;14.00;100.00
41706;BME280;27385;51.096;17.190;2023-08-06T06:42:49;98737.36;;;14.00;100.00
41706;BME280;27385;51.096;17.190;2023-08-06T06:45:20;98737.20;;;14.00;100.00
41706;BME280;27385;51.096;17.190;2023-08-06T06:47:51;98741.25;;;14.01;100.00
41706;BME280;27385;51.096;17.190;2023-08-06T06:50:22;98741.56;;;14.02;100.00
41706;BME280;27385;51.096;17.190;2023-08-06T06:52:53;98731.98;;;14.01;100.00
41706;BME280;27385;51.096;17.190;2023-08-06T06:55:24;98729.98;;;14.02;100.00
41706;BME280;27385;51.096;17.190;2023-08-06T06:57:55;98733.92;;;14.04;100.00
41706;BME280;27385;51.096;17.190;2023-08-06T07:00:27;98735.95;;;14.04;100.00
41706;BME280;27385;51.096;17.190;2023-08-06T07:02:58;98725.52;;;14.05;100.00
41706;BME280;27385;51.096;17.190;2023-08-06T07:05:29;98727.27;;;14.07;100.00
41706;BME280;27385;51.096;17.190;2023-08-06T07:07:59;98722.70;;;14.09;100.00
41706;BME280;27385;51.096;17.190;2023-08-06T07:10:30;98721.79;;;14.11;100.00
41706;BME280;27385;51.096;17.190;2023-08-06T07:13:01;98720.08;;;14.12;100.00
41706;BME280;27385;51.096;17.190;2023-08-06T07:15:32;98720.84;;;14.12;100.00
41706;BME280;27385;51.096;17.190;2023-08-06T07:18:03;98710.14;;;14.12;100.00
41706;BME280;27385;51.096;17.190;2023-08-06T07:20:33;98698.83;;;14.11;100.00
41706;BME280;27385;51.096;17.190;2023-08-06T07:23:04;98702.60;;;14.11;100.00
41706;BME280;27385;51.096;17.190;2023-08-06T07:25:35;98708.45;;;14.12;100.00
41706;BME280;27385;51.096;17.190;2023-08-06T07:28:06;98712.25;;;14.13;100.00
41706;BME280;27385;51.096;17.190;2023-08-06T07:30:39;98720.65;;;14.15;100.00
41706;BME280;27385;51.096;17.190;2023-08-06T07:33:10;98719.45;;;14.15;100.00
41706;BME280;27385;51.096;17.190;2023-08-06T07:35:41;98719.23;;;14.16;100.00
41706;BME280;27385;51.096;17.190;2023-08-06T07:38:12;98708.42;;;14.16;100.00
41706;BME280;27385;51.096;17.190;2023-08-06T07:40:44;98691.95;;;14.15;100.00
41706;BME280;27385;51.096;17.190;2023-08-06T07:43:15;98692.14;;;14.14;100.00
41706;BME280;27385;51.096;17.190;2023-08-06T07:45:45;98695.60;;;14.14;100.00
41706;BME280;27385;51.096;17.190;2023-08-06T07:48:16;98702.04;;;14.14;100.00
41706;BME280;27385;51.096;17.190;2023-08-06T07:50:50;98703.92;;;14.14;100.00
41706;BME280;27385;51.096;17.190;2023-08-06T07:53:23;98702.84;;;14.15;100.00
41706;BME280;27385;51.096;17.190;2023-08-06T07:55:56;98688.23;;;14.16;100.00
41706;BME280;27385;51.096;17.190;2023-08-06T07:58:26;98680.76;;;14.17;100.00
41706;BME280;27385;51.096;17.190;2023-08-06T08:00:59;98675.01;;;14.18;100.00
41706;BME280;27385;51.096;17.190;2023-08-06T08:03:30;98674.48;;;14.19;100.00
41706;BME280;27385;51.096;17.190;2023-08-06T08:06:00;98667.38;;;14.19;100.00
41706;BME280;27385;51.096;17.190;2023-08-06T08:08:31;98660.44;;;14.20;100.00
41706;BME280;27385;51.096;17.190;2023-08-06T08:11:02;98647.64;;;14.21;100.00
41706;BME280;27385;51.096;17.190;2023-08-06T08:13:33;98639.14;;;14.22;100.00
41706;BME280;27385;51.096;17.190;2023-08-06T08:16:05;98633.70;;;14.24;100.00
41706;BME280;27385;51.096;17.190;2023-08-06T08:18:36;98624.50;;;14.25;100.00
41706;BME280;27385;51.096;17.190;2023-08-06T08:21:06;98607.83;;;14.26;100.00
41706;BME280;27385;51.096;17.190;2023-08-06T08:23:37;98607.34;;;14.27;100.00
41706;BME280;27385;51.096;17.190;2023-08-06T08:26:08;98604.23;;;14.29;100.00
41706;BME280;27385;51.096;17.190;2023-08-06T08:28:39;98610.43;;;14.32;100.00
41706;BME280;27385;51.096;17.190;2023-08-06T08:31:11;98618.79;;;14.35;100.00
41706;BME280;27385;51.096;17.190;2023-08-06T08:33:42;98631.10;;;14.39;100.00
41706;BME280;27385;51.096;17.190;2023-08-06T08:36:13;98637.66;;;14.43;100.00
41706;BME280;27385;51.096;17.190;2023-08-06T08:38:43;98637.02;;;14.46;100.00
41706;BME280;27385;51.096;17.190;2023-08-06T08:41:15;98634.29;;;14.50;100.00
41706;BME280;27385;51.096;17.190;2023-08-06T08:43:46;98635.70;;;14.52;100.00
41706;BME280;27385;51.096;17.190;2023-08-06T08:46:18;98624.86;;;14.53;100.00
41706;BME280;27385;51.096;17.190;2023-08-06T08:48:49;98617.84;;;14.55;100.00
41706;BME280;27385;51.096;17.190;2023-08-06T08:51:20;98617.33;;;14.56;100.00
41706;BME280;27385;51.096;17.190;2023-08-06T08:53:52;98609.48;;;14.58;100.00
41706;BME280;27385;51.096;17.190;2023-08-06T08:56:25;98607.70;;;14.60;100.00
41706;BME280;27385;51.096;17.190;2023-08-06T08:58:55;98607.70;;;14.63;100.00
41706;BME280;27385;51.096;17.190;2023-08-06T09:01:26;98606.02;;;14.65;100.00
41706;BME280;27385;51.096;17.190;2023-08-06T09:03:59;98597.73;;;14.67;100.00
41706;BME280;27385;51.096;17.190;2023-08-06T09:06:31;98603.19;;;14.68;100.00
41706;BME280;27385;51.096;17.190;2023-08-06T09:09:08;98604.34;;;14.69;100.00
41706;BME280;27385;51.096;17.190;2023-08-06T09:11:44;98603.12;;;14.69;100.00
41706;BME280;27385;51.096;17.190;2023-08-06T09:14:19;98602.48;;;14.69;100.00
41706;BME280;27385;51.096;17.190;2023-08-06T09:16:49;98610.34;;;14.70;100.00
41706;BME280;27385;51.096;17.190;2023-08-06T09:19:22;98605.99;;;14.70;100.00
41706;BME280;27385;51.096;17.190;2023-08-06T09:21:55;98608.90;;;14.68;100.00
41706;BME280;27385;51.096;17.190;2023-08-06T09:24:30;98606.61;;;14.67;100.00
41706;BME280;27385;51.096;17.190;2023-08-06T09:27:11;98609.81;;;14.68;100.00
41706;BME280;27385;51.096;17.190;2023-08-06T09:29:46;98610.33;;;14.68;100.00
41706;BME280;27385;51.096;17.190;2023-08-06T09:32:21;98607.48;;;14.67;100.00
41706;BME280;27385;51.096;17.190;2023-08-06T09:34:56;98602.90;;;14.67;100.00
41706;BME280;27385;51.096;17.190;2023-08-06T09:37:36;98614.48;;;14.65;100.00
41706;BME280;27385;51.096;17.190;2023-08-06T09:40:31;98613.07;;;14.62;100.00
41706;BME280;27385;51.096;17.190;2023-08-06T09:43:03;98615.32;;;14.61;100.00
41706;BME280;27385;51.096;17.190;2023-08-06T09:45:36;98615.08;;;14.59;100.00
41706;BME280;27385;51.096;17.190;2023-08-06T09:48:08;98617.91;;;14.61;100.00
41706;BME280;27385;51.096;17.190;2023-08-06T09:50:40;98623.89;;;14.62;100.00
41706;BME280;27385;51.096;17.190;2023-08-06T09:53:11;98625.41;;;14.63;100.00
41706;BME280;27385;51.096;17.190;2023-08-06T09:55:42;98624.27;;;14.64;100.00
41706;BME280;27385;51.096;17.190;2023-08-06T09:58:13;98626.07;;;14.65;100.00
41706;BME280;27385;51.096;17.190;2023-08-06T10:00:45;98626.36;;;14.65;100.00
41706;BME280;27385;51.096;17.190;2023-08-06T10:03:16;98623.23;;;14.67;100.00
41706;BME280;27385;51.096;17.190;2023-08-06T10:05:48;98622.48;;;14.67;100.00
41706;BME280;27385;51.096;17.190;2023-08-06T10:08:19;98625.04;;;14.68;100.00
41706;BME280;27385;51.096;17.190;2023-08-06T10:10:51;98618.95;;;14.69;100.00
41706;BME280;27385;51.096;17.190;2023-08-06T10:13:22;98610.46;;;14.69;100.00
41706;BME280;27385;51.096;17.190;2023-08-06T10:15:54;98599.70;;;14.68;100.00
41706;BME280;27385;51.096;17.190;2023-08-06T10:18:26;98585.61;;;14.68;100.00
41706;BME280;27385;51.096;17.190;2023-08-06T10:20:58;98574.48;;;14.69;100.00
41706;BME280;27385;51.096;17.190;2023-08-06T10:23:35;98567.76;;;14.69;100.00
41706;BME280;27385;51.096;17.190;2023-08-06T10:26:09;98566.94;;;14.69;100.00
41706;BME280;27385;51.096;17.190;2023-08-06T10:28:41;98563.42;;;14.71;100.00
41706;BME280;27385;51.096;17.190;2023-08-06T10:31:12;98560.45;;;14.72;100.00
41706;BME280;27385;51.096;17.190;2023-08-06T10:33:44;98551.17;;;14.73;100.00
41706;BME280;27385;51.096;17.190;2023-08-06T10:36:16;98542.50;;;14.75;100.00
41706;BME280;27385;51.096;17.190;2023-08-06T10:38:48;98543.61;;;14.76;100.00
41706;BME280;27385;51.096;17.190;2023-08-06T10:41:28;98544.05;;;14.76;100.00
41706;BME280;27385;51.096;17.190;2023-08-06T10:44:09;98537.40;;;14.79;100.00
41706;BME280;27385;51.096;17.190;2023-08-06T10:46:41;98532.70;;;14.81;100.00
41706;BME280;27385;51.096;17.190;2023-08-06T10:49:14;98534.09;;;14.80;100.00
41706;BME280;27385;51.096;17.190;2023-08-06T10:51:48;98532.85;;;14.81;100.00
41706;BME280;27385;51.096;17.190;2023-08-06T10:54:19;98523.31;;;14.82;100.00
41706;BME280;27385;51.096;17.190;2023-08-06T10:56:50;98518.77;;;14.84;100.00
41706;BME280;27385;51.096;17.190;2023-08-06T10:59:21;98514.50;;;14.87;100.00
41706;BME280;27385;51.096;17.190;2023-08-06T11:01:53;98517.38;;;14.90;100.00
41706;BME280;27385;51.096;17.190;2023-08-06T11:04:24;98525.73;;;14.95;100.00
41706;BME280;27385;51.096;17.190;2023-08-06T11:06:55;98526.43;;;14.98;100.00
41706;BME280;27385;51.096;17.190;2023-08-06T11:09:26;98527.35;;;15.01;100.00
41706;BME280;27385;51.096;17.190;2023-08-06T11:11:57;98523.23;;;15.05;100.00
41706;BME280;27385;51.096;17.190;2023-08-06T11:14:30;98522.45;;;15.07;100.00
41706;BME280;27385;51.096;17.190;2023-08-06T11:17:01;98524.49;;;15.09;100.00
41706;BME280;27385;51.096;17.190;2023-08-06T11:19:32;98526.83;;;15.10;100.00
41706;BME280;27385;51.096;17.190;2023-08-06T11:22:03;98528.23;;;15.09;100.00
41706;BME280;27385;51.096;17.190;2023-08-06T11:24:33;98526.59;;;15.09;100.00
41706;BME280;27385;51.096;17.190;2023-08-06T11:27:12;98525.36;;;15.09;100.00
41706;BME280;27385;51.096;17.190;2023-08-06T11:29:44;98525.98;;;15.10;100.00
41706;BME280;27385;51.096;17.190;2023-08-06T11:32:15;98519.27;;;15.10;100.00
41706;BME280;27385;51.096;17.190;2023-08-06T11:34:45;98519.04;;;15.11;100.00
41706;BME280;27385;51.096;17.190;2023-08-06T11:37:16;98520.80;;;15.12;100.00
41706;BME280;27385;51.096;17.190;2023-08-06T11:39:51;98523.14;;;15.12;100.00
41706;BME280;27385;51.096;17.190;2023-08-06T11:42:22;98522.25;;;15.15;100.00
41706;BME280;27385;51.096;17.190;2023-08-06T11:44:58;98518.64;;;15.18;100.00
41706;BME280;27385;51.096;17.190;2023-08-06T11:47:28;98524.77;;;15.20;100.00
41706;BME280;27385;51.096;17.190;2023-08-06T11:49:59;98528.90;;;15.22;100.00
41706;BME280;27385;51.096;17.190;2023-08-06T11:52:30;98529.77;;;15.22;100.00
41706;BME280;27385;51.096;17.190;2023-08-06T11:55:06;98533.02;;;15.22;100.00
41706;BME280;27385;51.096;17.190;2023-08-06T11:57:43;98539.44;;;15.22;100.00
41706;BME280;27385;51.096;17.190;2023-08-06T12:00:16;98538.04;;;15.21;100.00
41706;BME280;27385;51.096;17.190;2023-08-06T12:02:48;98542.79;;;15.19;100.00
41706;BME280;27385;51.096;17.190;2023-08-06T12:05:20;98548.55;;;15.17;100.00
41706;BME280;27385;51.096;17.190;2023-08-06T12:07:54;98549.44;;;15.17;100.00
41706;BME280;27385;51.096;17.190;2023-08-06T12:10:27;98553.05;;;15.15;100.00
41706;BME280;27385;51.096;17.190;2023-08-06T12:12:59;98555.75;;;15.14;100.00
41706;BME280;27385;51.096;17.190;2023-08-06T12:15:30;98557.74;;;15.14;100.00
41706;BME280;27385;51.096;17.190;2023-08-06T12:18:01;98558.22;;;15.13;100.00
41706;BME280;27385;51.096;17.190;2023-08-06T12:20:32;98556.13;;;15.13;100.00
41706;BME280;27385;51.096;17.190;2023-08-06T12:23:03;98563.73;;;15.14;100.00
41706;BME280;27385;51.096;17.190;2023-08-06T12:25:33;98564.41;;;15.13;100.00
41706;BME280;27385;51.096;17.190;2023-08-06T12:28:04;98566.02;;;15.14;100.00
41706;BME280;27385;51.096;17.190;2023-08-06T12:30:37;98574.02;;;15.15;100.00
41706;BME280;27385;51.096;17.190;2023-08-06T12:33:10;98578.92;;;15.15;100.00
41706;BME280;27385;51.096;17.190;2023-08-06T12:35:41;98583.23;;;15.14;100.00
41706;BME280;27385;51.096;17.190;2023-08-06T12:38:12;98585.23;;;15.13;100.00
41706;BME280;27385;51.096;17.190;2023-08-06T12:40:43;98588.75;;;15.12;100.00
41706;BME280;27385;51.096;17.190;2023-08-06T12:43:14;98590.33;;;15.12;100.00
41706;BME280;27385;51.096;17.190;2023-08-06T12:45:44;98590.86;;;15.12;100.00
41706;BME280;27385;51.096;17.190;2023-08-06T12:48:15;98593.66;;;15.12;100.00
41706;BME280;27385;51.096;17.190;2023-08-06T12:50:46;98593.52;;;15.13;100.00
41706;BME280;27385;51.096;17.190;2023-08-06T12:53:19;98590.69;;;15.15;100.00
41706;BME280;27385;51.096;17.190;2023-08-06T12:55:52;98597.52;;;15.17;100.00
41706;BME280;27385;51.096;17.190;2023-08-06T12:58:23;98598.27;;;15.19;100.00
41706;BME280;27385;51.096;17.190;2023-08-06T13:00:54;98598.67;;;15.20;100.00
41706;BME280;27385;51.096;17.190;2023-08-06T13:03:24;98597.63;;;15.21;100.00